createdAt,value
2022-11-13T00:01:24.537Z,13.26
2022-11-13T00:07:29.997Z,13.45
2022-11-13T00:13:35.911Z,13.52
2022-11-13T00:19:43.951Z,13.71
2022-11-13T00:25:49.373Z,13.61
2022-11-13T00:31:54.716Z,13.61
2022-11-13T00:37:59.849Z,13.85
2022-11-13T00:44:05.502Z,13.72
2022-11-13T00:50:10.765Z,13.90
2022-11-13T00:56:19.178Z,13.59
2022-11-13T01:02:24.368Z,13.56
2022-11-13T01:08:29.858Z,13.57
2022-11-13T01:14:35.608Z,13.56
2022-11-13T01:20:41.078Z,13.83
2022-11-13T01:26:47.501Z,14.02
2022-11-13T01:32:52.875Z,13.90
2022-11-13T01:38:58.646Z,13.86
2022-11-13T01:45:26.125Z,13.63
2022-11-13T01:51:41.906Z,13.70
2022-11-13T01:57:51.661Z,13.91
2022-11-13T02:03:57.005Z,13.84
2022-11-13T02:10:02.239Z,13.85
2022-11-13T02:16:10.468Z,13.82
2022-11-13T02:22:43.067Z,13.83
2022-11-13T02:28:48.336Z,13.73
2022-11-13T02:34:53.389Z,13.70
2022-11-13T02:40:58.604Z,13.70
2022-11-13T02:47:03.999Z,13.78
2022-11-13T02:53:11.899Z,13.81
2022-11-13T02:59:17.200Z,13.68
2022-11-13T03:05:23.105Z,13.70
2022-11-13T03:11:32.168Z,13.82
2022-11-13T03:17:37.357Z,13.79
2022-11-13T03:23:45.310Z,13.91
2022-11-13T03:29:50.720Z,13.89
2022-11-13T03:35:56.233Z,13.93
2022-11-13T03:42:03.363Z,13.85
2022-11-13T03:48:08.980Z,14.02
2022-11-13T03:54:14.215Z,13.89
2022-11-13T04:00:19.999Z,13.83
2022-11-13T04:06:25.232Z,13.62
2022-11-13T04:12:30.635Z,13.47
2022-11-13T04:18:36.957Z,13.65
2022-11-13T04:24:42.311Z,13.81
2022-11-13T04:30:47.910Z,13.47
2022-11-13T04:36:53.047Z,13.21
2022-11-13T04:42:58.494Z,12.92
2022-11-13T04:49:04.128Z,12.69
2022-11-13T04:55:09.672Z,13.00
2022-11-13T05:01:15.265Z,12.88
2022-11-13T05:07:20.704Z,12.86
2022-11-13T05:13:26.790Z,12.88
2022-11-13T05:19:33.783Z,12.80
2022-11-13T05:25:39.085Z,13.02
2022-11-13T05:31:44.595Z,12.81
2022-11-13T05:37:49.762Z,12.51
2022-11-13T05:43:59.462Z,12.46
2022-11-13T05:50:05.482Z,12.32
2022-11-13T05:56:16.893Z,11.88
2022-11-13T06:02:22.315Z,11.88
2022-11-13T06:08:28.445Z,12.02
2022-11-13T06:14:33.630Z,12.16
2022-11-13T06:20:39.447Z,12.35
2022-11-13T06:26:44.427Z,12.29
2022-11-13T06:32:53.562Z,12.03
2022-11-13T06:38:59.274Z,12.08
2022-11-13T06:45:05.338Z,12.28
2022-11-13T06:51:15.385Z,12.50
2022-11-13T06:57:20.546Z,12.05
2022-11-13T07:03:26.984Z,12.02
2022-11-13T07:09:32.230Z,11.64
2022-11-13T07:15:39.871Z,11.82
2022-11-13T07:21:44.976Z,12.12
2022-11-13T07:27:50.785Z,12.20
2022-11-13T07:33:56.183Z,12.04
2022-11-13T07:40:01.909Z,12.16
2022-11-13T07:46:07.209Z,12.16
2022-11-13T07:52:12.454Z,11.73
2022-11-13T07:58:18.169Z,12.17
2022-11-13T08:04:26.579Z,11.77
2022-11-13T08:10:32.366Z,11.91
2022-11-13T08:16:37.450Z,12.00
2022-11-13T08:22:47.457Z,11.91
2022-11-13T08:28:53.016Z,12.08
2022-11-13T08:34:58.364Z,11.93
2022-11-13T08:41:09.202Z,11.92
2022-11-13T08:47:16.497Z,11.67
2022-11-13T08:53:23.175Z,12.03
2022-11-13T08:59:28.398Z,11.87
2022-11-13T09:05:33.976Z,11.87
2022-11-13T09:11:39.463Z,12.04
2022-11-13T09:17:44.931Z,12.46
2022-11-13T09:23:50.729Z,12.40
2022-11-13T09:29:56.591Z,12.75
2022-11-13T09:36:02.529Z,12.59
2022-11-13T09:42:23.761Z,12.58
2022-11-13T09:48:32.737Z,12.15
2022-11-13T09:54:38.705Z,11.92
2022-11-13T10:00:44.996Z,12.25
2022-11-13T10:07:18.760Z,12.02
2022-11-13T10:13:43.917Z,12.21
2022-11-13T10:20:16.002Z,12.46
2022-11-13T10:26:24.564Z,12.46
2022-11-13T10:32:33.314Z,12.59
2022-11-13T10:38:50.184Z,12.51
2022-11-13T10:45:00.468Z,12.62
2022-11-13T10:51:26.891Z,12.84
2022-11-13T10:57:34.736Z,13.09
2022-11-13T11:03:49.399Z,13.00
2022-11-13T11:09:54.992Z,12.63
2022-11-13T11:16:05.365Z,12.75
2022-11-13T11:22:17.695Z,12.52
2022-11-13T11:28:29.477Z,12.88
2022-11-13T11:35:12.236Z,13.39
2022-11-13T11:41:26.508Z,13.28
2022-11-13T11:47:33.797Z,13.20
2022-11-13T11:54:05.456Z,13.37
2022-11-13T12:00:18.169Z,13.17
2022-11-13T12:06:35.591Z,13.09
2022-11-13T12:12:40.876Z,13.13
2022-11-13T12:19:04.384Z,13.10
2022-11-13T12:25:23.277Z,13.66
2022-11-13T12:31:48.028Z,13.61
2022-11-13T12:37:59.452Z,13.92
2022-11-13T12:44:27.659Z,13.82
2022-11-13T12:50:33.162Z,13.99
2022-11-13T12:56:38.647Z,14.27
2022-11-13T13:02:55.425Z,14.65
2022-11-13T13:09:36.122Z,14.58
2022-11-13T13:15:47.385Z,14.67
2022-11-13T13:21:52.945Z,14.79
2022-11-13T13:28:01.419Z,14.95
2022-11-13T13:34:34.697Z,14.69
2022-11-13T13:41:15.945Z,14.24
2022-11-13T13:47:41.255Z,14.50
2022-11-13T13:53:48.223Z,14.66
2022-11-13T13:59:54.112Z,14.70
2022-11-13T14:06:23.774Z,14.59
2022-11-13T14:12:29.034Z,14.69
2022-11-13T14:18:35.358Z,14.39
2022-11-13T14:24:57.416Z,14.32
2022-11-13T14:31:12.738Z,14.35
2022-11-13T14:37:27.830Z,14.62
2022-11-13T14:43:34.194Z,14.49
2022-11-13T14:49:41.070Z,14.51
2022-11-13T14:55:56.949Z,14.48
2022-11-13T15:02:02.274Z,14.13
2022-11-13T15:08:13.752Z,14.24
2022-11-13T15:14:20.594Z,14.21
2022-11-13T15:20:28.618Z,14.43
2022-11-13T15:26:33.554Z,14.25
2022-11-13T15:32:39.864Z,14.21
2022-11-13T15:38:45.318Z,14.03
2022-11-13T15:44:50.640Z,13.88
2022-11-13T15:50:56.109Z,13.63
2022-11-13T15:57:02.156Z,13.56
2022-11-13T16:03:12.388Z,13.45
2022-11-13T16:09:17.837Z,13.48
2022-11-13T16:15:24.091Z,13.50
2022-11-13T16:21:30.633Z,13.40
2022-11-13T16:27:36.063Z,13.11
2022-11-13T16:33:41.945Z,13.20
2022-11-13T16:39:50.797Z,13.19
2022-11-13T16:46:00.147Z,13.07
2022-11-13T16:52:06.035Z,13.09
2022-11-13T16:58:21.947Z,13.11
2022-11-13T17:04:28.404Z,13.08
2022-11-13T17:10:34.884Z,13.08
2022-11-13T17:16:42.292Z,13.15
2022-11-13T17:22:49.132Z,13.43
2022-11-13T17:28:55.087Z,13.34
2022-11-13T17:35:00.400Z,13.22
2022-11-13T17:41:08.687Z,13.12
2022-11-13T17:47:15.031Z,12.86
2022-11-13T17:53:23.953Z,12.83
2022-11-13T17:59:30.056Z,12.95
2022-11-13T18:05:40.522Z,12.96
2022-11-13T18:11:50.369Z,13.05
2022-11-13T18:17:58.245Z,12.96
2022-11-13T18:24:09.395Z,13.21
2022-11-13T18:30:18.540Z,13.34
2022-11-13T18:36:23.714Z,13.08
2022-11-13T18:42:29.609Z,12.82
2022-11-13T18:48:38.202Z,12.95
2022-11-13T18:54:46.785Z,12.82
2022-11-13T19:00:52.953Z,12.91
2022-11-13T19:07:00.259Z,12.93
2022-11-13T19:13:07.958Z,12.63
2022-11-13T19:19:22.399Z,12.55
2022-11-13T19:25:41.471Z,12.52
2022-11-13T19:31:54.203Z,12.70
2022-11-13T19:38:07.986Z,12.33
2022-11-13T19:44:17.044Z,12.21
2022-11-13T19:50:27.534Z,12.40
2022-11-13T19:56:45.411Z,12.32
2022-11-13T20:03:05.120Z,12.67
2022-11-13T20:16:07.818Z,12.43
2022-11-13T20:22:17.223Z,12.42
2022-11-13T20:28:28.386Z,12.51
2022-11-13T20:34:41.885Z,12.52
2022-11-13T20:40:52.416Z,12.21
2022-11-13T20:46:58.042Z,12.38
2022-11-13T20:53:07.995Z,12.34
2022-11-13T20:59:17.827Z,12.27
2022-11-13T21:05:23.915Z,12.15
2022-11-13T21:11:29.758Z,12.09
2022-11-13T21:17:44.517Z,12.06
2022-11-13T21:23:51.366Z,12.12
2022-11-13T21:30:01.899Z,12.04
2022-11-13T21:36:11.526Z,11.99
2022-11-13T21:42:19.351Z,11.44
2022-11-13T21:48:28.022Z,11.48
2022-11-13T21:54:36.192Z,11.49
2022-11-13T22:00:42.297Z,11.54
2022-11-13T22:06:49.461Z,11.46
2022-11-13T22:21:03.427Z,11.04
2022-11-13T22:27:11.091Z,11.08
2022-11-13T22:33:16.896Z,11.09
2022-11-13T22:39:22.298Z,10.87
2022-11-13T22:45:27.937Z,10.70
2022-11-13T22:51:38.309Z,11.00
2022-11-13T22:57:44.023Z,10.84
2022-11-13T23:03:50.902Z,11.04
2022-11-13T23:09:56.308Z,11.00
2022-11-13T23:16:06.985Z,10.86
2022-11-13T23:22:15.506Z,10.92
2022-11-13T23:28:20.841Z,10.86
2022-11-13T23:34:57.687Z,10.78
2022-11-13T23:40:58.931Z,10.61
2022-11-13T23:47:04.850Z,10.22
2022-11-13T23:53:11.166Z,10.37
2022-11-13T23:59:16.691Z,10.22
